ロサンゼルス の空港の天気 - METARとTAF

ロサンゼルス国際空港 ( KLAX / LAX ) - アメリカ カリフォルニア州ロサンゼルス
飛行場実況気象(Metar)
観測時間07/17 21:25 PDT (07/18 04:25 UTC)
風向・風速西 5m/s
視程10km以上
天気現象
全天の4割程度の雲 雲底高度 340m
全天の4割程度の雲 雲底高度 4570m
気温20.6℃
湿度81%
気圧1015hPa
METARKLAX 180425Z 26010KT 10SM SCT011 SCT150 21/17 A2997 RMK AO2 T02060172
過去の天気等 Google飛行場航空写真 Wunderground天気予報

過去48時間のMETAR

飛行場予報(TAF)
発表時間: 7/17 19:35 PDT (7/18 02:35 UTC)
予報対象時間: 17日20時 PDT ~ 18日23時 PDT
風向・風速西 5m/s
視程10km以上
全天の4割程度の雲 雲底高度 300m
全天の4割程度の雲 雲底高度 4570m
17日21時 PDT から
風向・風速西南西 4m/s
視程10km以上
全天を覆う雲 雲底高度 300m
18日8時 PDT から
風向・風速西南西 3m/s
視程6440m
天気現象もや
全天を覆う雲 雲底高度 460m
18日11時 PDT から
風向・風速西 4m/s
視程8050m
天気現象煙霧
全天を覆う雲 雲底高度 520m
18日14時 PDT から
風向・風速西 5m/s
視程10km以上
天気現象煙霧
全天の4割程度の雲 雲底高度 3050m
全天の8割程度の雲 雲底高度 7620m
18日20時 PDT から
風向・風速西 4m/s
視程10km以上
全天の8割程度の雲 雲底高度 370m
全天の8割程度の雲 雲底高度 3050m
全天を覆う雲 雲底高度 7620m
KLAX 180235Z 1803/1906 26009KT P6SM SCT010 SCT150
FM180430 25007KT P6SM OVC010
FM181500 25006KT 4SM BR OVC015
FM181800 27007KT 5SM HZ OVC017
FM182100 26010KT 6SM HZ SCT100 BKN250
FM190300 26008KT P6SM BKN012 BKN100 OVC250